Portada
METAR-TAF:

METAR-TAF

Aeroports :

Zamboanga, Filipines

latitud: 06-54N, longitud: 122-04E, altitud: 5 m

Observació

L'informe es va fer fa 10 minuts, a les 12:00 UTC
Vent 4 kt del Est/Nord-Est
Temperatura 27°C
Humitat 89%
Pressió 1013 hPa
Visibilitat: 9000 m
Escasses núvols a una alçada de 1700 ft
Cel ennuvolat a una alçada de 9000 ft

METAR: RPMZ 181200Z 07004KT 9000 FEW017 BKN090 27/25 Q1013 RMK A2991

Hora: 20:10 (12:10 UTC)

Pronòstic

L'informe es va fer fa 7 hores i 10 minuts, a les 05:00 UTC
Pronòstic vàlid del 18 a les 06 UTC al 19 a les 06 UTC
Vent 7 kt del Est
Visibilitat 10 km o més
Escasses núvols a una alçada de 1700 ft
Núvols disperses a una alçada de 30000 ft
Temporalment
l' 18 a les 06 UTC al 18 a les 12 UTC
Vent 9 kt del Est
Visibilitat: 9000 m
Escasses núvols a una alçada de 1600 ft, Cumulonimbus.
Núvols disperses a una alçada de 9000 ft

TAF: RPMZ 180500Z 1806/1906 10007KT 9999 FEW017 SCT300 TEMPO 1806/1812 09009KT 9000 FEW016CB SCT090

Observacions i pronòstics meteorològics de més de 4000 aeroports (METAR i TAF).

Les estacions disponibles són els punts grocs i vermells al mapa.

Posi el ratolí al punt desitjat per veure el nom de l'estació.

Feu clic per veure les observacions i els pronòstics meteorològics.

Per canviar el mapa: feu clic els botons verds amb una creu de color negre per apropar; al botó verd amb un guió per allunyar la imatge; o en les fletxes verdes per a mapes adjacents.


METAR-TAF: